Swift Arrow — WAFK — position and weather

sailwx.info

Track history (hours):
 
Tides and Currents Weather Stations Pressure Air Temp Water Temp Dewpoint Dewpoint Depression Visibility Wind Speed Wind Dir Waves Ship Positions

Swift Arrow

Owner: ARROW LAUNCH SERVICE INC, Port Angeles, WA. More information available from US FCC via Universal Licensing System and Coast Guard Vessel Documentation Center.

Last reported at 2017-Feb-18 20:32 UTC. Time now 2017-Feb-19 16:53 UTC.
Position N 47°15' W 122°26'.

Type: Port tender. MMSI: 369021000.

Date/timePositionNaut miles runAvg speedWind from/ knotsBaromVisibWave heightAir tempDewpointWater temp
2017-Feb-18 20:32N 47°15' W 122°26'1 0.7
2017-Feb-18 19:33N 47°16' W 122°26'0 0.2
2017-Feb-18 18:33N 47°16' W 122°26'  
2017-Feb-14 19:20N 47°15' W 122°26'5 7.0
2017-Feb-14 18:33N 47°20' W 122°29'2 1.9
2017-Feb-14 17:33N 47°19' W 122°28'3 0.8
2017-Feb-14 13:13N 47°15' W 122°26'5 8.2
2017-Feb-14 12:34N 47°20' W 122°28'5 5.0
2017-Feb-14 11:34N 47°16' W 122°26'0 0.0
2017-Feb-13 09:19N 47°15' W 122°26'2 2.2
2017-Feb-13 08:33N 47°17' W 122°25'1 0.1
2017-Feb-12 22:31N 47°17' W 122°25'0 0.1
2017-Feb-12 21:26N 47°17' W 122°25'  
2017-Feb-09 20:33N 47°16' W 122°26'1 0.0
2017-Feb-09 00:05N 47°15' W 122°26'1 1.7
2017-Feb-08 23:33N 47°16' W 122°27'1 0.9
2017-Feb-08 22:29N 47°17' W 122°26'  
Track history (hours):
 
Tides and Currents Weather Stations Pressure Air Temp Water Temp Dewpoint Dewpoint Depression Visibility Wind Speed Wind Dir Waves Ship Positions

Swift Arrow

Owner: ARROW LAUNCH SERVICE INC, Port Angeles, WA. More information available from US FCC via Universal Licensing System and Coast Guard Vessel Documentation Center.

Last reported at 2017-Feb-18 20:32 UTC. Time now 2017-Feb-19 16:53 UTC.
Position N 47°15' W 122°26'.

Type: Port tender. MMSI: 369021000.

Date/timePositionNaut miles runAvg speedWind from/ knotsBaromVisibWave heightAir tempDewpointWater temp
2017-Feb-18 20:32N 47°15' W 122°26'1 0.7
2017-Feb-18 19:33N 47°16' W 122°26'0 0.2
2017-Feb-18 18:33N 47°16' W 122°26'  
2017-Feb-14 19:20N 47°15' W 122°26'5 7.0
2017-Feb-14 18:33N 47°20' W 122°29'2 1.9
2017-Feb-14 17:33N 47°19' W 122°28'3 0.8
2017-Feb-14 13:13N 47°15' W 122°26'5 8.2
2017-Feb-14 12:34N 47°20' W 122°28'5 5.0
2017-Feb-14 11:34N 47°16' W 122°26'0 0.0
2017-Feb-13 09:19N 47°15' W 122°26'2 2.2
2017-Feb-13 08:33N 47°17' W 122°25'1 0.1
2017-Feb-12 22:31N 47°17' W 122°25'0 0.1
2017-Feb-12 21:26N 47°17' W 122°25'  
2017-Feb-09 20:33N 47°16' W 122°26'1 0.0
2017-Feb-09 00:05N 47°15' W 122°26'1 1.7
2017-Feb-08 23:33N 47°16' W 122°27'1 0.9
2017-Feb-08 22:29N 47°17' W 122°26'  

Dump ship's entire track history